Time;durP1;ratioP1;P1;durP2;ratioP2;P2;SDS_P1;SDS_P2;PMS_P1;PMS_P2;Temp;Humidity;BMP_temperature;BMP_pressure;BME280_temperature;BME280_humidity;BME280_pressure;Samples;Min_cycle;Max_cycle;Signal;HPM_P1;HPM_P2
2022/02/06 00:02:04;;;;;;;12.20;3.00;;;7.10;99.90;;;;;;5011781;28;20018;-57
2022/02/06 00:04:30;;;;;;;14.77;2.80;;;7.10;99.90;;;;;;5011388;28;20281;-57
2022/02/06 00:06:56;;;;;;;13.80;2.60;;;7.10;99.90;;;;;;5012240;28;20084;-57
2022/02/06 00:09:21;;;;;;;9.50;2.10;;;7.10;99.90;;;;;;5009626;28;20470;-57
2022/02/06 00:11:47;;;;;;;4.60;1.70;;;7.20;99.90;;;;;;5011705;28;20105;-57
2022/02/06 00:14:12;;;;;;;9.60;2.10;;;7.20;99.90;;;;;;5011918;28;20388;-57
2022/02/06 00:16:38;;;;;;;12.95;2.38;;;7.30;99.90;;;;;;5011720;28;20506;-57
2022/02/06 00:19:04;;;;;;;7.63;1.80;;;7.30;99.90;;;;;;5011439;28;20030;-57
2022/02/06 00:21:32;;;;;;;13.35;2.25;;;7.30;99.90;;;;;;5015256;28;20438;-57
2022/02/06 00:23:59;;;;;;;8.65;2.60;;;7.40;99.90;;;;;;5015687;28;20024;-57
2022/02/06 00:29:24;;;;;;;13.73;2.60;;;7.40;99.90;;;;;;5006276;28;20511;-57
2022/02/06 00:32:00;;;;;;;;;;;7.40;99.90;;;;;;5015664;28;20522;-57
2022/02/06 00:39:48;;;;;;;13.85;2.25;;;7.40;99.90;;;;;;5015670;28;20553;-57
2022/02/06 00:42:14;;;;;;;17.67;2.85;;;7.50;99.90;;;;;;5015404;28;20026;-57
2022/02/06 00:44:39;;;;;;;10.65;2.25;;;7.50;99.90;;;;;;5015242;28;20032;-57
2022/02/06 00:47:06;;;;;;;7.95;1.98;;;7.50;99.90;;;;;;5015474;28;20291;-56
2022/02/06 00:49:32;;;;;;;16.25;2.15;;;7.60;99.90;;;;;;5015053;28;20563;-58
2022/02/06 00:52:14;;;;;;;7.93;2.05;;;7.60;99.90;;;;;;5015584;28;20030;-56
2022/02/06 00:54:40;;;;;;;9.73;2.45;;;7.60;99.90;;;;;;5015798;28;20014;-57
2022/02/06 00:57:06;;;;;;;6.63;2.00;;;7.60;99.90;;;;;;5015156;28;20387;-61
2022/02/06 00:59:32;;;;;;;7.05;1.90;;;7.70;99.90;;;;;;5015540;28;20664;-57
2022/02/06 01:01:57;;;;;;;8.25;2.38;;;7.60;99.90;;;;;;5014955;28;20479;-57
2022/02/06 01:04:23;;;;;;;6.13;1.73;;;7.70;99.90;;;;;;5015210;28;20514;-56
2022/02/06 01:06:49;;;;;;;10.77;1.98;;;7.70;99.90;;;;;;5014959;28;20471;-57
2022/02/06 01:09:17;;;;;;;7.10;1.77;;;7.80;99.90;;;;;;5014836;28;20440;-56
2022/02/06 01:11:43;;;;;;;5.93;1.70;;;7.70;99.90;;;;;;5014598;28;20037;-57
2022/02/06 01:16:54;;;;;;;6.18;1.60;;;7.80;99.90;;;;;;5014923;28;20040;-57
2022/02/06 01:19:27;;;;;;;5.63;1.50;;;7.80;99.90;;;;;;5014518;28;20050;-57
2022/02/06 01:24:23;;;;;;;12.15;2.92;;;7.90;99.90;;;;;;5015175;28;20438;-57
2022/02/06 01:26:54;;;;;;;10.82;2.15;;;7.90;99.90;;;;;;5013428;28;20541;-57
2022/02/06 01:32:03;;;;;;;9.15;1.92;;;7.90;99.90;;;;;;5012603;28;20034;-58
2022/02/06 01:34:43;;;;;;;7.65;2.42;;;7.90;99.90;;;;;;5014610;28;20022;-57
2022/02/06 01:37:17;;;;;;;10.10;1.92;;;7.80;99.90;;;;;;5014700;28;20022;-57
2022/02/06 01:42:15;;;;;;;10.50;2.00;;;7.80;99.90;;;;;;5014584;28;20117;-56
2022/02/06 02:03:41;;;;;;;8.32;1.67;;;7.20;99.90;;;;;;5013126;28;20037;-61
2022/02/06 02:12:39;;;;;;;10.88;2.50;;;7.00;99.90;;;;;;5013766;28;20065;-61
2022/02/06 02:20:19;;;;;;;12.75;2.85;;;7.00;99.90;;;;;;5013157;28;20049;-60
2022/02/06 02:44:47;;;;;;;9.25;2.08;;;7.50;99.90;;;;;;5012964;28;20141;-60
2022/02/06 02:47:12;;;;;;;10.20;2.03;;;7.50;99.90;;;;;;5012598;28;20081;-60
2022/02/06 02:49:40;;;;;;;8.18;1.90;;;7.40;99.90;;;;;;5011352;28;20726;-59
2022/02/06 02:52:13;;;;;;;10.65;2.78;;;7.50;99.90;;;;;;5012601;28;20037;-59
2022/02/06 02:54:41;;;;;;;9.68;2.50;;;7.50;99.90;;;;;;5013499;28;20018;-59
2022/02/06 02:57:18;;;;;;;9.90;2.28;;;7.40;99.90;;;;;;5012728;28;20498;-60
2022/02/06 03:00:07;;;;;;;11.02;2.67;;;7.30;99.90;;;;;;5012952;28;20480;-59
2022/02/06 03:02:33;;;;;;;9.68;1.88;;;7.30;99.90;;;;;;5011159;28;20470;-60
2022/02/06 03:05:00;;;;;;;9.80;2.40;;;7.20;99.90;;;;;;5012958;28;20021;-60
2022/02/06 03:07:26;;;;;;;9.40;2.67;;;7.10;99.90;;;;;;5012246;28;20524;-61
2022/02/06 03:09:52;;;;;;;7.65;2.47;;;7.10;99.90;;;;;;5012176;28;20022;-62
2022/02/06 03:12:23;;;;;;;6.38;2.08;;;7.10;99.90;;;;;;5012564;28;20479;-62
2022/02/06 03:14:57;;;;;;;14.88;2.83;;;7.00;99.90;;;;;;5010920;28;20028;-60
2022/02/06 03:17:32;;;;;;;8.20;2.90;;;7.00;99.90;;;;;;5012114;28;20641;-60
2022/02/06 03:20:05;;;;;;;11.77;3.35;;;7.00;99.90;;;;;;5012147;28;20029;-61
2022/02/06 03:22:36;;;;;;;13.77;2.85;;;7.00;99.90;;;;;;5011502;28;20029;-62
2022/02/06 03:25:07;;;;;;;7.45;2.35;;;7.00;99.90;;;;;;5011265;28;20026;-61
2022/02/06 03:27:34;;;;;;;10.00;2.83;;;7.00;99.90;;;;;;5012576;28;20549;-61
2022/02/06 03:29:59;;;;;;;11.23;2.92;;;7.10;99.90;;;;;;5010464;28;20045;-62
2022/02/06 03:32:25;;;;;;;12.85;3.40;;;7.00;99.90;;;;;;5012052;28;20018;-62
2022/02/06 03:34:50;;;;;;;12.00;3.50;;;7.00;99.90;;;;;;5011770;28;20018;-62
2022/02/06 03:37:17;;;;;;;14.48;3.40;;;7.00;99.90;;;;;;5010704;28;20113;-62
2022/02/06 03:39:49;;;;;;;14.38;3.53;;;7.00;99.90;;;;;;5010366;28;20025;-61
2022/02/06 03:42:16;;;;;;;12.30;4.05;;;7.00;99.90;;;;;;5010529;28;20026;-62
2022/02/06 03:44:47;;;;;;;12.25;2.85;;;6.90;99.90;;;;;;5010473;28;20038;-60
2022/02/06 03:47:22;;;;;;;12.63;2.83;;;6.90;99.90;;;;;;5011889;28;20033;-61
2022/02/06 03:49:57;;;;;;;11.30;3.65;;;6.90;99.90;;;;;;5012166;28;20029;-60
2022/02/06 03:52:30;;;;;;;5.88;2.42;;;6.90;99.90;;;;;;5012164;28;20430;-59
2022/02/06 03:54:56;;;;;;;12.73;3.60;;;6.90;99.90;;;;;;5011769;28;20513;-61
2022/02/06 03:57:21;;;;;;;12.00;3.55;;;7.00;99.90;;;;;;5010732;28;20281;-60
2022/02/06 03:59:47;;;;;;;12.48;3.90;;;6.90;99.90;;;;;;5010452;28;20069;-60
2022/02/06 04:02:13;;;;;;;12.00;3.45;;;6.90;99.90;;;;;;5011712;28;20030;-61
2022/02/06 04:04:38;;;;;;;12.32;3.75;;;7.00;99.90;;;;;;5011514;28;20034;-60
2022/02/06 04:07:07;;;;;;;7.35;2.42;;;6.90;99.90;;;;;;5010689;28;20026;-59
2022/02/06 04:09:41;;;;;;;14.07;3.55;;;7.00;99.90;;;;;;5011779;28;20572;-59
2022/02/06 04:12:07;;;;;;;12.35;2.97;;;6.90;99.90;;;;;;5011755;28;20423;-59
2022/02/06 04:14:42;;;;;;;11.57;3.78;;;7.00;99.90;;;;;;5011783;28;20069;-59
2022/02/06 04:17:20;;;;;;;14.38;3.63;;;7.00;99.90;;;;;;5011581;28;20037;-59
2022/02/06 04:19:46;;;;;;;12.80;4.00;;;7.00;99.90;;;;;;5010333;28;20024;-59
2022/02/06 04:22:11;;;;;;;7.00;2.88;;;7.00;99.90;;;;;;5010464;28;20479;-59
2022/02/06 04:24:37;;;;;;;10.50;3.35;;;7.00;99.90;;;;;;5011692;28;20110;-59
2022/02/06 04:27:03;;;;;;;11.57;3.22;;;7.00;99.90;;;;;;5010071;28;20069;-59
2022/02/06 04:29:29;;;;;;;14.65;4.03;;;7.00;99.90;;;;;;5011209;28;20088;-58
2022/02/06 04:31:54;;;;;;;10.75;3.65;;;7.10;99.90;;;;;;5011362;28;20032;-59
2022/02/06 04:34:24;;;;;;;15.48;4.05;;;7.10;99.90;;;;;;5010206;28;20504;-59
2022/02/06 04:37:02;;;;;;;10.80;3.55;;;7.10;99.90;;;;;;5011133;28;20045;-59
2022/02/06 04:42:31;;;;;;;12.10;4.85;;;7.10;99.90;;;;;;5011298;28;20494;-59
2022/02/06 05:27:56;;;;;;;15.73;6.07;;;7.50;99.90;;;;;;5014731;28;20022;-60
2022/02/06 05:30:39;;;;;;;15.45;5.47;;;7.50;99.90;;;;;;5013683;28;20046;-59
2022/02/06 05:33:05;;;;;;;14.73;4.22;;;7.50;99.90;;;;;;5013890;28;20084;-59
2022/02/06 05:35:34;;;;;;;20.73;5.72;;;7.50;99.90;;;;;;5013766;28;20049;-59
2022/02/06 05:38:00;;;;;;;14.23;4.65;;;7.50;99.90;;;;;;5013972;28;20017;-59
2022/02/06 05:40:25;;;;;;;14.10;3.95;;;7.60;99.90;;;;;;5014301;28;20033;-59
2022/02/06 05:42:51;;;;;;;12.00;3.45;;;7.60;99.90;;;;;;5013542;28;20073;-59
2022/02/06 05:45:19;;;;;;;12.65;4.05;;;7.70;99.90;;;;;;5014261;28;20041;-59
2022/02/06 05:47:45;;;;;;;16.48;4.40;;;7.70;99.90;;;;;;5012639;28;20125;-58
2022/02/06 05:50:15;;;;;;;13.73;3.53;;;7.70;99.90;;;;;;5012594;28;20116;-58
2022/02/06 05:52:41;;;;;;;14.32;4.20;;;7.70;99.90;;;;;;5012498;28;20030;-58
2022/02/06 05:55:08;;;;;;;12.05;3.60;;;7.70;99.90;;;;;;5013877;28;20022;-58
2022/02/06 05:57:34;;;;;;;10.38;2.47;;;7.70;99.90;;;;;;5011890;28;20062;-60
2022/02/06 06:00:00;;;;;;;11.43;3.80;;;7.70;99.90;;;;;;5013895;28;20388;-60
2022/02/06 06:02:26;;;;;;;17.63;5.22;;;7.60;99.90;;;;;;5012671;28;20120;-61
2022/02/06 06:04:54;;;;;;;12.68;4.47;;;7.60;99.90;;;;;;5014078;28;20030;-61
2022/02/06 06:07:20;;;;;;;17.50;4.25;;;7.60;99.90;;;;;;5013390;28;20029;-59
2022/02/06 06:09:45;;;;;;;12.27;4.03;;;7.60;99.90;;;;;;5013485;28;20053;-60
2022/02/06 06:12:11;;;;;;;15.23;4.55;;;7.50;99.90;;;;;;5012270;28;20479;-60
2022/02/06 06:14:39;;;;;;;14.43;4.75;;;7.50;99.90;;;;;;5012190;28;20022;-60
2022/02/06 06:17:04;;;;;;;8.10;3.65;;;7.50;99.90;;;;;;5011777;28;20026;-60
2022/02/06 06:19:31;;;;;;;17.85;4.88;;;7.50;99.90;;;;;;5012010;28;20408;-61
2022/02/06 06:21:58;;;;;;;17.58;4.78;;;7.40;99.90;;;;;;5012403;28;20037;-61
2022/02/06 06:24:26;;;;;;;14.35;5.20;;;7.40;99.90;;;;;;5013116;28;20029;-61
2022/02/06 06:26:52;;;;;;;13.48;4.13;;;7.40;99.90;;;;;;5012842;28;20048;-62
2022/02/06 06:29:18;;;;;;;11.13;4.18;;;7.40;99.90;;;;;;5012135;28;20151;-61
2022/02/06 06:31:44;;;;;;;10.55;4.22;;;7.40;99.90;;;;;;5013671;28;20073;-60
2022/02/06 06:34:10;;;;;;;10.02;4.25;;;7.40;99.90;;;;;;5013014;28;20030;-61
2022/02/06 06:36:36;;;;;;;13.13;4.32;;;7.40;99.90;;;;;;5012094;28;20387;-60
2022/02/06 06:39:04;;;;;;;13.00;4.60;;;7.40;99.90;;;;;;5013075;28;20024;-60
2022/02/06 06:41:29;;;;;;;12.45;4.75;;;7.50;99.90;;;;;;5012936;28;20033;-60
2022/02/06 06:43:55;;;;;;;12.63;5.25;;;7.50;99.90;;;;;;5013054;28;20388;-60
2022/02/06 06:46:21;;;;;;;11.15;5.70;;;7.50;99.90;;;;;;5011463;28;20034;-61
2022/02/06 06:48:47;;;;;;;11.93;5.30;;;7.60;99.90;;;;;;5013035;28;20101;-60
2022/02/06 06:51:13;;;;;;;11.57;5.03;;;7.60;99.90;;;;;;5011940;28;20018;-60
2022/02/06 06:53:42;;;;;;;10.30;3.92;;;7.60;99.90;;;;;;5013133;28;20104;-60
2022/02/06 06:56:16;;;;;;;10.65;5.30;;;7.70;99.90;;;;;;5012325;28;20048;-60
2022/02/06 06:58:47;;;;;;;10.48;5.18;;;7.70;99.90;;;;;;5012866;28;20022;-61
2022/02/06 07:04:00;;;;;;;13.45;5.18;;;7.80;99.90;;;;;;5012910;28;20096;-60
2022/02/06 07:06:26;;;;;;;11.70;4.43;;;7.70;99.90;;;;;;5012744;28;20025;-60
2022/02/06 07:08:51;;;;;;;9.95;4.88;;;7.80;99.90;;;;;;5012780;28;20395;-61
2022/02/06 07:11:17;;;;;;;10.40;2.80;;;7.80;99.90;;;;;;5012488;28;20484;-61
2022/02/06 07:13:43;;;;;;;10.63;4.53;;;7.80;99.90;;;;;;5013019;28;20026;-60
2022/02/06 07:16:10;;;;;;;17.98;2.85;;;7.80;99.90;;;;;;5012259;28;20100;-60
2022/02/06 07:18:36;;;;;;;9.52;3.35;;;7.90;99.90;;;;;;5012759;28;20442;-60
2022/02/06 07:21:02;;;;;;;12.93;4.10;;;7.90;99.90;;;;;;5012000;28;20033;-60
2022/02/06 07:23:27;;;;;;;10.38;4.43;;;7.90;99.90;;;;;;5012255;28;20034;-60
2022/02/06 07:25:58;;;;;;;8.25;3.10;;;7.80;99.90;;;;;;5012725;28;20048;-61
2022/02/06 07:28:24;;;;;;;12.52;3.10;;;7.90;99.90;;;;;;5012323;28;20022;-60
2022/02/06 07:30:50;;;;;;;11.07;3.30;;;7.90;99.90;;;;;;5010750;28;20050;-60
2022/02/06 07:33:19;;;;;;;6.63;2.50;;;7.90;99.90;;;;;;5011087;28;20048;-60
2022/02/06 07:35:46;;;;;;;13.25;3.95;;;8.00;99.90;;;;;;5011823;28;20045;-60
2022/02/06 07:38:14;;;;;;;8.32;3.25;;;8.00;99.90;;;;;;5012054;28;20030;-61
2022/02/06 07:40:40;;;;;;;9.15;2.78;;;8.00;99.90;;;;;;5010984;28;20045;-61
2022/02/06 07:43:06;;;;;;;11.95;2.40;;;8.00;99.90;;;;;;5010648;28;20036;-61
2022/02/06 07:45:35;;;;;;;10.10;3.10;;;8.00;99.90;;;;;;5012614;28;20022;-60
2022/02/06 07:48:03;;;;;;;13.10;2.80;;;8.00;99.90;;;;;;5011767;28;20061;-61
2022/02/06 07:50:29;;;;;;;9.75;2.55;;;8.00;99.90;;;;;;5010607;28;20116;-62
2022/02/06 07:52:54;;;;;;;6.15;2.05;;;8.00;99.90;;;;;;5011985;28;20113;-60
2022/02/06 07:55:20;;;;;;;10.55;4.35;;;8.00;99.90;;;;;;5012022;28;20239;-60
2022/02/06 07:57:46;;;;;;;7.13;2.85;;;8.00;99.90;;;;;;5011788;28;20018;-61
2022/02/06 08:00:12;;;;;;;10.57;3.38;;;8.00;99.90;;;;;;5011965;28;20033;-61
2022/02/06 08:02:39;;;;;;;7.65;3.13;;;7.90;99.90;;;;;;5011696;28;20519;-62
2022/02/06 08:05:05;;;;;;;9.55;3.17;;;7.90;99.90;;;;;;5012708;28;20026;-61
2022/02/06 08:07:32;;;;;;;6.25;2.85;;;7.90;99.90;;;;;;5010741;28;20021;-61
2022/02/06 08:09:59;;;;;;;5.28;2.38;;;7.90;99.90;;;;;;5011950;28;20500;-60
2022/02/06 08:12:32;;;;;;;4.78;1.92;;;7.90;99.90;;;;;;5010313;28;20542;-60
2022/02/06 08:15:03;;;;;;;;;;;7.90;99.90;;;;;;5013106;28;20088;-61
2022/02/06 08:17:37;;;;;;;7.68;2.63;;;7.90;99.90;;;;;;5022204;28;19905;-61
2022/02/06 08:20:14;;;;;;;6.55;2.83;;;7.90;99.90;;;;;;5014226;28;20064;-62
2022/02/06 08:22:43;;;;;;;6.00;1.95;;;7.90;99.90;;;;;;5011796;28;20026;-59
2022/02/06 08:25:11;;;;;;;11.25;4.03;;;7.90;99.90;;;;;;5010305;28;20089;-61
2022/02/06 08:27:37;;;;;;;12.43;3.35;;;7.90;99.90;;;;;;5011789;28;20479;-61
2022/02/06 08:30:04;;;;;;;11.60;3.70;;;7.90;99.90;;;;;;5011506;28;20125;-61
2022/02/06 08:32:30;;;;;;;8.38;3.13;;;7.90;99.90;;;;;;5010019;28;20450;-61
2022/02/06 08:34:56;;;;;;;13.82;3.90;;;7.90;99.90;;;;;;5010314;28;20117;-62
2022/02/06 08:37:23;;;;;;;8.15;3.22;;;7.90;99.90;;;;;;5011322;28;20022;-60
2022/02/06 08:39:49;;;;;;;5.80;2.47;;;7.90;99.90;;;;;;5011954;28;20073;-62
2022/02/06 08:42:15;;;;;;;11.23;3.40;;;8.00;99.90;;;;;;5015369;28;20030;-62
2022/02/06 08:44:44;;;;;;;7.55;2.83;;;8.00;99.90;;;;;;5015846;28;20057;-62
2022/02/06 08:47:12;;;;;;;9.93;3.67;;;8.00;99.90;;;;;;5015933;28;20041;-63
2022/02/06 08:49:39;;;;;;;6.78;2.80;;;8.00;99.90;;;;;;5014725;28;20034;-62
2022/02/06 08:52:06;;;;;;;11.20;3.67;;;8.00;99.90;;;;;;5015588;28;20471;-61
2022/02/06 08:54:34;;;;;;;7.50;2.78;;;8.00;99.90;;;;;;5016373;28;20029;-62
2022/02/06 08:57:05;;;;;;;7.72;3.22;;;8.00;99.90;;;;;;5015358;28;20105;-62
2022/02/06 08:59:33;;;;;;;12.05;2.80;;;8.00;99.90;;;;;;5016213;28;20022;-63
2022/02/06 09:02:02;;;;;;;11.23;3.03;;;8.00;99.90;;;;;;5014182;28;20061;-61
2022/02/06 09:04:29;;;;;;;10.85;2.78;;;8.00;99.90;;;;;;5015534;28;20022;-62
2022/02/06 09:06:58;;;;;;;9.50;2.67;;;8.00;99.90;;;;;;5014111;28;20026;-62
2022/02/06 09:09:28;;;;;;;11.05;2.47;;;8.00;99.90;;;;;;5015170;28;20495;-63
2022/02/06 09:11:54;;;;;;;10.07;2.72;;;8.10;99.90;;;;;;5015084;28;20171;-62
2022/02/06 09:14:22;;;;;;;7.28;2.30;;;8.10;99.90;;;;;;5015197;28;20451;-63
2022/02/06 09:16:48;;;;;;;10.48;2.20;;;8.10;99.90;;;;;;5013341;28;20022;-63
2022/02/06 09:19:15;;;;;;;7.13;2.05;;;8.10;99.90;;;;;;5014963;28;20072;-62
2022/02/06 09:21:41;;;;;;;7.90;2.50;;;8.10;99.90;;;;;;5014661;28;20028;-63
2022/02/06 09:24:07;;;;;;;6.90;2.30;;;8.10;99.90;;;;;;5017235;28;20093;-62
2022/02/06 09:26:35;;;;;;;6.05;2.10;;;8.10;99.90;;;;;;5014401;28;20030;-62
2022/02/06 09:29:00;;;;;;;4.78;2.15;;;8.10;99.90;;;;;;5013905;28;20026;-62
2022/02/06 09:31:27;;;;;;;5.95;2.08;;;8.10;99.90;;;;;;5014052;28;20372;-62
2022/02/06 09:36:19;;;;;;;5.18;2.03;;;8.10;99.90;;;;;;5014192;28;20564;-63
2022/02/06 09:38:45;;;;;;;5.57;1.33;;;8.10;99.90;;;;;;5013996;28;20096;-62
2022/02/06 09:41:11;;;;;;;5.97;1.88;;;8.10;99.90;;;;;;5012846;28;20064;-62
2022/02/06 09:43:37;;;;;;;7.20;1.33;;;8.10;99.90;;;;;;5013168;28;20033;-62
2022/02/06 09:46:04;;;;;;;4.70;1.83;;;8.10;99.90;;;;;;5014595;28;20053;-63
2022/02/06 09:48:30;;;;;;;3.00;1.90;;;8.20;99.90;;;;;;5014119;28;20065;-62
2022/02/06 09:50:57;;;;;;;4.68;2.10;;;8.20;99.90;;;;;;5014194;28;20030;-63
2022/02/06 09:53:25;;;;;;;6.20;1.73;;;8.20;99.90;;;;;;5013370;28;20097;-63
2022/02/06 09:55:52;;;;;;;8.27;1.80;;;8.20;99.90;;;;;;5012912;28;20026;-63
2022/02/06 09:58:45;;;;;;;3.42;1.42;;;8.20;99.90;;;;;;5014799;28;20029;-63
2022/02/06 10:01:06;;;;;;;2.60;1.08;;;8.30;99.90;;;;;;5014418;28;20063;-63
2022/02/06 10:03:38;;;;;;;3.90;1.73;;;8.30;99.90;;;;;;5014869;28;20315;-63
2022/02/06 10:06:07;;;;;;;5.03;1.75;;;8.30;99.90;;;;;;5012843;28;20435;-63
2022/02/06 10:08:39;;;;;;;4.32;1.42;;;8.30;99.90;;;;;;5013778;28;20045;-63
2022/02/06 10:11:16;;;;;;;5.10;1.52;;;8.40;99.90;;;;;;5014131;28;20143;-63
2022/02/06 10:13:43;;;;;;;3.38;1.10;;;8.50;99.90;;;;;;5012826;28;20125;-64
2022/02/06 10:16:12;;;;;;;5.50;1.88;;;8.50;99.90;;;;;;5014309;28;20482;-64
2022/02/06 10:18:39;;;;;;;6.35;1.95;;;8.50;99.90;;;;;;5013479;28;20021;-64
2022/02/06 10:21:08;;;;;;;3.33;1.38;;;8.50;99.90;;;;;;5014767;28;20072;-63
2022/02/06 10:23:38;;;;;;;3.10;1.50;;;8.50;99.90;;;;;;5014565;28;20539;-64
2022/02/06 10:26:19;;;;;;;7.65;2.35;;;8.50;99.90;;;;;;5013153;28;20475;-64
2022/02/06 10:28:48;;;;;;;3.80;1.23;;;8.50;99.90;;;;;;5014216;28;20034;-63
2022/02/06 10:31:17;;;;;;;3.75;1.40;;;8.50;99.90;;;;;;5020520;28;20049;-64
2022/02/06 10:33:44;;;;;;;3.47;1.20;;;8.60;99.90;;;;;;5019090;28;20032;-64
2022/02/06 10:36:09;;;;;;;3.00;0.85;;;8.60;99.90;;;;;;5012355;28;20048;-64
2022/02/06 10:38:35;;;;;;;4.82;1.25;;;8.70;99.90;;;;;;5013276;28;20022;-64
2022/02/06 10:41:17;;;;;;;5.47;1.48;;;8.70;99.90;;;;;;5013653;28;20021;-65
2022/02/06 10:44:02;;;;;;;3.90;1.67;;;8.80;99.90;;;;;;5014647;28;20026;-63
2022/02/06 10:46:33;;;;;;;2.67;1.00;;;8.80;99.90;;;;;;5012852;28;20080;-64
2022/02/06 10:49:10;;;;;;;3.13;1.15;;;8.90;99.90;;;;;;5011717;28;20109;-66
2022/02/06 10:51:40;;;;;;;5.38;1.20;;;8.90;99.90;;;;;;5012992;28;20075;-64
2022/02/06 10:54:16;;;;;;;2.80;0.60;;;8.90;99.90;;;;;;5011377;28;20022;-65
2022/02/06 10:57:04;;;;;;;2.67;0.88;;;9.10;99.90;;;;;;5012543;28;20026;-64
2022/02/06 10:59:51;;;;;;;3.33;0.80;;;9.20;99.90;;;;;;5011367;28;20026;-67
2022/02/06 11:02:30;;;;;;;4.68;1.20;;;9.30;99.90;;;;;;5013067;28;20029;-64
2022/02/06 11:05:13;;;;;;;2.10;0.55;;;9.30;99.90;;;;;;5012641;28;20041;-64
2022/02/06 11:07:49;;;;;;;;;;;9.40;99.90;;;;;;5013927;28;20021;-66
2022/02/06 11:10:15;;;;;;;4.40;0.90;;;9.50;99.90;;;;;;5011757;28;19929;-64
2022/02/06 11:12:48;;;;;;;11.65;1.55;;;9.60;99.90;;;;;;5012935;28;20492;-63
2022/02/06 11:15:37;;;;;;;8.35;1.38;;;9.80;99.90;;;;;;5011195;28;20026;-64
2022/02/06 11:18:11;;;;;;;4.75;1.10;;;9.80;99.90;;;;;;5012291;28;20395;-62
2022/02/06 11:20:53;;;;;;;11.75;1.83;;;9.90;99.90;;;;;;5011195;28;20081;-63
2022/02/06 11:23:19;;;;;;;6.82;1.60;;;10.00;99.90;;;;;;5012365;28;20014;-61
2022/02/06 11:25:46;;;;;;;15.02;2.55;;;10.00;99.90;;;;;;5012120;28;20486;-60
2022/02/06 11:28:12;;;;;;;15.63;2.13;;;10.00;99.90;;;;;;5011940;28;20022;-62
2022/02/06 11:30:43;;;;;;;9.65;2.13;;;10.10;99.90;;;;;;5011857;28;20046;-60
2022/02/06 11:33:09;;;;;;;13.32;2.03;;;10.00;99.90;;;;;;5012574;28;20080;-60
2022/02/06 11:35:39;;;;;;;14.85;2.15;;;10.10;99.90;;;;;;5011461;28;20021;-60
2022/02/06 11:44:15;;;;;;;7.20;1.35;;;9.90;99.90;;;;;;5012546;28;20029;-60
2022/02/06 11:47:11;;;;;;;7.13;1.67;;;9.80;99.90;;;;;;5010626;28;20507;-61
2022/02/06 11:49:39;;;;;;;9.23;1.85;;;9.60;99.90;;;;;;5011653;28;20564;-63
2022/02/06 11:52:06;;;;;;;9.38;1.92;;;9.40;99.90;;;;;;5010492;28;20037;-63
2022/02/06 11:54:33;;;;;;;5.00;1.13;;;9.20;99.90;;;;;;5012257;28;20029;-62
2022/02/06 11:57:24;;;;;;;5.80;1.08;;;9.10;99.90;;;;;;5012110;28;20046;-63
2022/02/06 12:00:06;;;;;;;4.97;1.30;;;9.00;99.90;;;;;;5003812;28;20034;-62
2022/02/06 12:02:35;;;;;;;2.97;0.73;;;8.90;99.90;;;;;;5010341;28;20061;-64
2022/02/06 12:05:20;;;;;;;3.17;0.90;;;8.80;99.90;;;;;;5010407;28;20526;-64
2022/02/06 12:08:02;;;;;;;5.93;0.88;;;8.70;99.90;;;;;;5012129;28;20061;-62
2022/02/06 12:10:34;;;;;;;2.77;0.70;;;8.60;99.90;;;;;;5011537;28;20022;-62
2022/02/06 12:13:19;;;;;;;3.58;1.00;;;8.60;99.90;;;;;;5011399;28;20030;-62
2022/02/06 12:15:52;;;;;;;2.58;1.05;;;8.70;99.90;;;;;;5012479;28;20021;-62
2022/02/06 12:18:24;;;;;;;;;;;8.80;99.90;;;;;;5016064;28;20022;-62
2022/02/06 12:20:56;;;;;;;6.18;1.23;;;8.90;99.90;;;;;;5015878;28;19913;-63
2022/02/06 12:23:41;;;;;;;8.40;1.17;;;8.90;99.90;;;;;;5016723;28;20034;-62
2022/02/06 12:26:31;;;;;;;5.60;0.80;;;8.90;99.90;;;;;;5016282;28;20018;-62
2022/02/06 12:28:58;;;;;;;5.85;1.27;;;8.70;99.90;;;;;;5015205;28;20025;-63
2022/02/06 12:31:29;;;;;;;4.25;0.82;;;8.60;99.90;;;;;;5015189;28;20032;-63
2022/02/06 12:39:33;;;;;;;2.83;0.50;;;8.10;99.90;;;;;;5015232;28;20073;-62
2022/02/06 12:42:00;;;;;;;2.42;0.52;;;7.90;99.90;;;;;;5015159;28;20026;-62
2022/02/06 12:44:28;;;;;;;3.55;0.75;;;7.80;99.90;;;;;;5015523;28;20026;-61
2022/02/06 12:47:01;;;;;;;2.78;0.70;;;7.80;99.90;;;;;;5013743;28;20030;-63
2022/02/06 12:49:34;;;;;;;3.17;0.75;;;7.70;99.90;;;;;;5015123;28;20522;-63
2022/02/06 12:52:00;;;;;;;2.78;0.60;;;7.70;99.90;;;;;;5015054;28;20018;-63
2022/02/06 12:54:27;;;;;;;3.42;0.80;;;7.70;99.90;;;;;;5014000;28;20025;-61
2022/02/06 12:56:57;;;;;;;2.90;0.88;;;7.80;99.90;;;;;;5013944;28;20073;-61
2022/02/06 12:59:24;;;;;;;7.82;0.80;;;7.80;99.90;;;;;;5015045;28;20026;-62
2022/02/06 13:01:53;;;;;;;6.15;1.00;;;7.90;99.90;;;;;;5014848;28;20104;-61
2022/02/06 13:04:27;;;;;;;7.13;1.08;;;7.90;99.90;;;;;;5014900;28;20048;-61
2022/02/06 13:06:58;;;;;;;5.15;1.80;;;8.10;99.90;;;;;;5014207;28;20160;-60
2022/02/06 13:09:29;;;;;;;8.80;1.80;;;8.30;99.90;;;;;;5014175;28;20022;-60
2022/02/06 13:12:08;;;;;;;7.57;2.05;;;8.40;99.90;;;;;;5014440;28;20521;-61
2022/02/06 13:23:05;;;;;;;6.82;2.00;;;8.60;99.90;;;;;;5012893;28;20471;-59
2022/02/06 13:30:53;;;;;;;10.35;2.63;;;8.80;99.90;;;;;;5017094;28;20106;-59
2022/02/06 13:38:37;;;;;;;15.82;3.20;;;9.60;99.90;;;;;;5014616;28;20264;-58
2022/02/06 13:41:17;;;;;;;12.10;2.35;;;10.30;99.90;;;;;;5014121;28;20018;-58
2022/02/06 13:43:43;;;;;;;10.63;2.30;;;11.00;99.90;;;;;;5014171;28;20026;-57
2022/02/06 13:46:13;;;;;;;11.70;2.60;;;11.40;99.90;;;;;;5013559;28;20029;-58
2022/02/06 13:48:39;;;;;;;9.65;2.05;;;11.50;99.90;;;;;;5013833;28;20087;-57
2022/02/06 13:51:08;;;;;;;10.40;2.17;;;11.80;99.90;;;;;;5013467;28;20093;-56
2022/02/06 13:53:35;;;;;;;9.80;1.75;;;12.20;99.90;;;;;;5014660;28;20033;-56
2022/02/06 13:56:04;;;;;;;8.93;1.95;;;11.90;99.90;;;;;;5013494;28;20022;-56
2022/02/06 13:58:31;;;;;;;8.85;1.92;;;11.60;99.90;;;;;;5012451;28;20028;-56
2022/02/06 14:01:02;;;;;;;16.10;2.53;;;11.80;99.90;;;;;;5013713;28;20048;-57
2022/02/06 14:03:48;;;;;;;12.30;2.05;;;11.50;99.90;;;;;;5013463;28;20052;-57
2022/02/06 14:06:17;;;;;;;10.25;2.30;;;11.40;99.90;;;;;;5013598;28;20049;-56
2022/02/06 14:09:10;;;;;;;10.20;2.53;;;11.00;99.90;;;;;;5012279;28;20499;-57
2022/02/06 14:11:36;;;;;;;8.05;2.42;;;10.80;99.90;;;;;;5013159;28;20084;-56
2022/02/06 14:14:18;;;;;;;10.45;2.85;;;10.70;99.90;;;;;;5013272;28;20050;-55
2022/02/06 14:16:47;;;;;;;;;;;10.80;99.90;;;;;;5013840;28;20101;-55
2022/02/06 14:19:15;;;;;;;12.82;2.20;;;10.70;99.90;;;;;;5013335;28;19906;-55
2022/02/06 14:21:47;;;;;;;9.48;2.13;;;10.60;99.90;;;;;;5013146;28;20030;-54
2022/02/06 14:24:13;;;;;;;12.63;2.60;;;10.60;99.90;;;;;;5013615;28;20018;-55
2022/02/06 14:27:00;;;;;;;13.18;2.47;;;10.50;99.90;;;;;;5012108;28;20376;-55
2022/02/06 14:29:26;;;;;;;11.00;2.35;;;10.50;99.90;;;;;;5012995;28;20457;-55
2022/02/06 14:31:51;;;;;;;13.90;3.17;;;10.50;99.90;;;;;;5012937;28;20053;-54
2022/02/06 14:34:22;;;;;;;11.93;2.42;;;10.60;99.90;;;;;;5013028;28;20104;-55
2022/02/06 14:37:09;;;;;;;12.23;2.80;;;10.60;99.90;;;;;;5012939;28;20110;-55
2022/02/06 14:39:38;;;;;;;9.43;2.72;;;10.50;99.90;;;;;;5012768;28;20605;-55
2022/02/06 14:42:13;;;;;;;10.77;2.33;;;10.40;99.90;;;;;;5012883;28;20022;-55
2022/02/06 14:44:39;;;;;;;9.55;2.58;;;10.30;99.90;;;;;;5013372;28;20069;-55
2022/02/06 14:47:05;;;;;;;14.07;2.35;;;10.30;99.90;;;;;;5011529;28;20030;-55
2022/02/06 14:49:31;;;;;;;9.98;2.35;;;10.30;99.90;;;;;;5013094;28;20022;-55
2022/02/06 14:51:59;;;;;;;12.95;2.22;;;10.30;99.90;;;;;;5010962;28;20037;-54
2022/02/06 14:54:31;;;;;;;8.88;1.90;;;10.30;99.90;;;;;;5012901;28;20021;-54
2022/02/06 14:56:57;;;;;;;10.48;2.80;;;10.30;99.90;;;;;;5012332;28;20029;-55
2022/02/06 14:59:23;;;;;;;11.13;2.47;;;10.30;99.90;;;;;;5013258;28;20034;-55
2022/02/06 15:01:51;;;;;;;8.60;2.17;;;10.30;99.90;;;;;;5012121;28;20109;-57
2022/02/06 15:04:17;;;;;;;9.05;2.00;;;10.30;99.90;;;;;;5012804;28;20334;-54
2022/02/06 15:06:43;;;;;;;7.90;1.60;;;10.30;99.90;;;;;;5012539;28;20450;-56
2022/02/06 15:09:09;;;;;;;11.02;1.80;;;10.30;99.90;;;;;;5010711;28;20030;-55
2022/02/06 15:11:35;;;;;;;8.07;1.80;;;10.20;99.90;;;;;;5012107;28;20025;-55
2022/02/06 15:14:01;;;;;;;7.75;1.92;;;10.30;99.90;;;;;;5012303;28;20033;-54
2022/02/06 15:16:30;;;;;;;8.05;2.05;;;10.20;99.90;;;;;;5012640;28;20168;-55
2022/02/06 15:19:01;;;;;;;11.20;1.70;;;10.10;99.90;;;;;;5012475;28;20446;-55
2022/02/06 15:21:27;;;;;;;15.77;2.43;;;10.10;99.90;;;;;;5011905;28;20112;-56
2022/02/06 15:23:53;;;;;;;14.68;2.00;;;10.10;99.90;;;;;;5012317;28;20033;-56
2022/02/06 15:26:19;;;;;;;9.30;2.17;;;10.00;99.90;;;;;;5011220;28;20025;-56
2022/02/06 15:28:49;;;;;;;13.98;2.20;;;10.00;99.90;;;;;;5012556;28;20025;-54
2022/02/06 15:31:16;;;;;;;13.20;2.67;;;10.00;99.90;;;;;;5010505;28;20124;-54
2022/02/06 15:33:41;;;;;;;11.15;3.30;;;10.00;99.90;;;;;;5012773;28;20447;-55
2022/02/06 15:36:08;;;;;;;14.32;2.95;;;10.00;99.90;;;;;;5012676;28;20049;-55
2022/02/06 15:38:38;;;;;;;8.60;2.35;;;10.00;99.90;;;;;;5012071;28;20042;-55